sensor_id;sensor_type;location;lat;lon;timestamp;P1;durP1;ratioP1;P2;durP2;ratioP2
72603;SDS011;60645;56.968;24.196;2023-04-24T00:01:58;8.18;;;3.22;;
72603;SDS011;60645;56.968;24.196;2023-04-24T00:04:25;4.07;;;3.05;;
72603;SDS011;60645;56.968;24.196;2023-04-24T00:06:53;6.50;;;3.00;;
72603;SDS011;60645;56.968;24.196;2023-04-24T00:09:26;6.05;;;2.80;;
72603;SDS011;60645;56.968;24.196;2023-04-24T00:11:53;5.68;;;3.08;;
72603;SDS011;60645;56.968;24.196;2023-04-24T00:14:20;5.20;;;2.83;;
72603;SDS011;60645;56.968;24.196;2023-04-24T00:16:47;5.60;;;3.10;;
72603;SDS011;60645;56.968;24.196;2023-04-24T00:19:14;4.80;;;2.50;;
72603;SDS011;60645;56.968;24.196;2023-04-24T00:21:41;7.25;;;3.00;;
72603;SDS011;60645;56.968;24.196;2023-04-24T00:24:08;5.13;;;2.90;;
72603;SDS011;60645;56.968;24.196;2023-04-24T00:26:35;5.10;;;2.93;;
72603;SDS011;60645;56.968;24.196;2023-04-24T00:29:02;5.72;;;3.00;;
72603;SDS011;60645;56.968;24.196;2023-04-24T00:31:29;6.75;;;2.58;;
72603;SDS011;60645;56.968;24.196;2023-04-24T00:33:56;7.20;;;3.10;;
72603;SDS011;60645;56.968;24.196;2023-04-24T00:36:24;6.03;;;3.15;;
72603;SDS011;60645;56.968;24.196;2023-04-24T00:38:51;6.70;;;3.00;;
72603;SDS011;60645;56.968;24.196;2023-04-24T00:41:18;4.70;;;2.90;;
72603;SDS011;60645;56.968;24.196;2023-04-24T00:43:45;6.45;;;2.95;;
72603;SDS011;60645;56.968;24.196;2023-04-24T00:46:12;5.78;;;2.88;;
72603;SDS011;60645;56.968;24.196;2023-04-24T00:48:40;6.40;;;3.03;;
72603;SDS011;60645;56.968;24.196;2023-04-24T00:51:07;3.92;;;2.70;;
72603;SDS011;60645;56.968;24.196;2023-04-24T00:53:34;4.82;;;2.40;;
72603;SDS011;60645;56.968;24.196;2023-04-24T00:56:01;5.03;;;2.67;;
72603;SDS011;60645;56.968;24.196;2023-04-24T00:58:29;5.60;;;3.00;;
72603;SDS011;60645;56.968;24.196;2023-04-24T01:00:57;4.45;;;2.85;;
72603;SDS011;60645;56.968;24.196;2023-04-24T01:03:28;5.53;;;3.20;;
72603;SDS011;60645;56.968;24.196;2023-04-24T01:05:58;4.70;;;2.90;;
72603;SDS011;60645;56.968;24.196;2023-04-24T01:08:26;3.95;;;2.60;;
72603;SDS011;60645;56.968;24.196;2023-04-24T01:10:54;5.63;;;2.90;;
72603;SDS011;60645;56.968;24.196;2023-04-24T01:13:23;5.50;;;3.00;;
72603;SDS011;60645;56.968;24.196;2023-04-24T01:15:50;5.28;;;3.03;;
72603;SDS011;60645;56.968;24.196;2023-04-24T01:18:17;5.70;;;2.80;;
72603;SDS011;60645;56.968;24.196;2023-04-24T01:20:44;5.68;;;2.70;;
72603;SDS011;60645;56.968;24.196;2023-04-24T01:23:12;6.20;;;2.70;;
72603;SDS011;60645;56.968;24.196;2023-04-24T01:25:40;9.77;;;3.00;;
72603;SDS011;60645;56.968;24.196;2023-04-24T01:28:07;6.25;;;3.17;;
72603;SDS011;60645;56.968;24.196;2023-04-24T01:30:34;4.75;;;2.42;;
72603;SDS011;60645;56.968;24.196;2023-04-24T01:33:01;4.53;;;2.85;;
72603;SDS011;60645;56.968;24.196;2023-04-24T01:35:28;6.10;;;2.40;;
72603;SDS011;60645;56.968;24.196;2023-04-24T01:37:55;4.90;;;2.67;;
72603;SDS011;60645;56.968;24.196;2023-04-24T01:40:22;8.82;;;3.00;;
72603;SDS011;60645;56.968;24.196;2023-04-24T01:42:49;6.20;;;2.88;;
72603;SDS011;60645;56.968;24.196;2023-04-24T01:45:17;5.35;;;2.90;;
72603;SDS011;60645;56.968;24.196;2023-04-24T01:47:44;4.85;;;2.70;;
72603;SDS011;60645;56.968;24.196;2023-04-24T01:50:12;5.90;;;2.90;;
72603;SDS011;60645;56.968;24.196;2023-04-24T01:52:39;4.72;;;2.72;;
72603;SDS011;60645;56.968;24.196;2023-04-24T01:55:06;5.90;;;2.73;;
72603;SDS011;60645;56.968;24.196;2023-04-24T01:57:34;5.40;;;3.00;;
72603;SDS011;60645;56.968;24.196;2023-04-24T02:00:02;4.75;;;2.90;;
72603;SDS011;60645;56.968;24.196;2023-04-24T02:02:30;5.70;;;2.77;;
72603;SDS011;60645;56.968;24.196;2023-04-24T02:04:58;5.33;;;2.53;;
72603;SDS011;60645;56.968;24.196;2023-04-24T02:07:25;4.28;;;2.80;;
72603;SDS011;60645;56.968;24.196;2023-04-24T02:09:52;5.13;;;2.70;;
72603;SDS011;60645;56.968;24.196;2023-04-24T02:12:19;5.20;;;2.80;;
72603;SDS011;60645;56.968;24.196;2023-04-24T02:14:46;6.10;;;2.60;;
72603;SDS011;60645;56.968;24.196;2023-04-24T02:17:13;3.55;;;2.33;;
72603;SDS011;60645;56.968;24.196;2023-04-24T02:19:41;6.13;;;3.40;;
72603;SDS011;60645;56.968;24.196;2023-04-24T02:22:09;4.70;;;2.78;;
72603;SDS011;60645;56.968;24.196;2023-04-24T02:24:37;5.90;;;2.85;;
72603;SDS011;60645;56.968;24.196;2023-04-24T02:27:04;6.15;;;3.00;;
72603;SDS011;60645;56.968;24.196;2023-04-24T02:29:31;4.03;;;2.63;;
72603;SDS011;60645;56.968;24.196;2023-04-24T02:31:58;4.90;;;2.78;;
72603;SDS011;60645;56.968;24.196;2023-04-24T02:34:25;5.20;;;2.80;;
72603;SDS011;60645;56.968;24.196;2023-04-24T02:36:52;4.03;;;2.80;;
72603;SDS011;60645;56.968;24.196;2023-04-24T02:39:20;4.35;;;3.00;;
72603;SDS011;60645;56.968;24.196;2023-04-24T02:41:47;7.30;;;3.53;;
72603;SDS011;60645;56.968;24.196;2023-04-24T02:44:14;5.28;;;2.90;;
72603;SDS011;60645;56.968;24.196;2023-04-24T02:46:41;7.63;;;2.90;;
72603;SDS011;60645;56.968;24.196;2023-04-24T02:49:08;4.93;;;2.60;;
72603;SDS011;60645;56.968;24.196;2023-04-24T02:51:35;5.30;;;3.10;;
72603;SDS011;60645;56.968;24.196;2023-04-24T02:54:04;5.32;;;3.60;;
72603;SDS011;60645;56.968;24.196;2023-04-24T02:56:31;4.70;;;2.58;;
72603;SDS011;60645;56.968;24.196;2023-04-24T02:58:58;4.85;;;2.50;;
72603;SDS011;60645;56.968;24.196;2023-04-24T03:01:25;4.60;;;3.07;;
72603;SDS011;60645;56.968;24.196;2023-04-24T03:03:52;5.53;;;2.88;;
72603;SDS011;60645;56.968;24.196;2023-04-24T03:06:19;4.72;;;2.80;;
72603;SDS011;60645;56.968;24.196;2023-04-24T03:08:47;7.05;;;3.13;;
72603;SDS011;60645;56.968;24.196;2023-04-24T03:11:14;4.95;;;2.63;;
72603;SDS011;60645;56.968;24.196;2023-04-24T03:13:40;9.05;;;3.20;;
72603;SDS011;60645;56.968;24.196;2023-04-24T03:16:07;7.22;;;3.03;;
72603;SDS011;60645;56.968;24.196;2023-04-24T03:18:34;5.30;;;3.05;;
72603;SDS011;60645;56.968;24.196;2023-04-24T03:21:01;6.88;;;3.47;;
72603;SDS011;60645;56.968;24.196;2023-04-24T03:23:29;7.20;;;3.25;;
72603;SDS011;60645;56.968;24.196;2023-04-24T03:25:56;8.05;;;3.50;;
72603;SDS011;60645;56.968;24.196;2023-04-24T03:28:23;8.20;;;2.90;;
72603;SDS011;60645;56.968;24.196;2023-04-24T03:30:51;6.03;;;3.10;;
72603;SDS011;60645;56.968;24.196;2023-04-24T03:33:18;7.03;;;3.50;;
72603;SDS011;60645;56.968;24.196;2023-04-24T03:35:45;10.07;;;4.50;;
72603;SDS011;60645;56.968;24.196;2023-04-24T03:38:12;10.35;;;5.07;;
72603;SDS011;60645;56.968;24.196;2023-04-24T03:40:39;6.28;;;2.97;;
72603;SDS011;60645;56.968;24.196;2023-04-24T03:43:05;5.47;;;3.28;;
72603;SDS011;60645;56.968;24.196;2023-04-24T03:45:32;5.97;;;4.13;;
72603;SDS011;60645;56.968;24.196;2023-04-24T03:47:59;6.88;;;3.72;;
72603;SDS011;60645;56.968;24.196;2023-04-24T03:50:26;6.70;;;4.03;;
72603;SDS011;60645;56.968;24.196;2023-04-24T03:52:55;7.13;;;4.00;;
72603;SDS011;60645;56.968;24.196;2023-04-24T03:55:22;5.20;;;3.22;;
72603;SDS011;60645;56.968;24.196;2023-04-24T03:57:49;5.63;;;3.17;;
72603;SDS011;60645;56.968;24.196;2023-04-24T04:00:16;4.95;;;2.80;;
72603;SDS011;60645;56.968;24.196;2023-04-24T04:02:43;4.85;;;2.78;;
72603;SDS011;60645;56.968;24.196;2023-04-24T04:05:10;4.57;;;2.75;;
72603;SDS011;60645;56.968;24.196;2023-04-24T04:07:37;6.20;;;3.20;;
72603;SDS011;60645;56.968;24.196;2023-04-24T04:10:04;6.07;;;3.23;;
72603;SDS011;60645;56.968;24.196;2023-04-24T04:12:33;5.80;;;3.50;;
72603;SDS011;60645;56.968;24.196;2023-04-24T04:15:00;5.97;;;3.10;;
72603;SDS011;60645;56.968;24.196;2023-04-24T04:17:27;7.25;;;2.75;;
72603;SDS011;60645;56.968;24.196;2023-04-24T04:19:54;6.45;;;2.78;;
72603;SDS011;60645;56.968;24.196;2023-04-24T04:22:21;5.15;;;2.65;;
72603;SDS011;60645;56.968;24.196;2023-04-24T04:24:48;5.82;;;3.10;;
72603;SDS011;60645;56.968;24.196;2023-04-24T04:27:17;6.80;;;2.92;;
72603;SDS011;60645;56.968;24.196;2023-04-24T04:29:44;5.88;;;2.55;;
72603;SDS011;60645;56.968;24.196;2023-04-24T04:32:12;7.97;;;3.17;;
72603;SDS011;60645;56.968;24.196;2023-04-24T04:34:39;5.03;;;3.08;;
72603;SDS011;60645;56.968;24.196;2023-04-24T04:37:06;6.72;;;3.13;;
72603;SDS011;60645;56.968;24.196;2023-04-24T04:39:33;8.57;;;3.20;;
72603;SDS011;60645;56.968;24.196;2023-04-24T04:42:00;6.93;;;3.15;;
72603;SDS011;60645;56.968;24.196;2023-04-24T04:44:27;8.45;;;3.17;;
72603;SDS011;60645;56.968;24.196;2023-04-24T04:46:55;9.23;;;3.17;;
72603;SDS011;60645;56.968;24.196;2023-04-24T04:49:23;6.78;;;3.25;;
72603;SDS011;60645;56.968;24.196;2023-04-24T04:51:50;7.03;;;2.65;;
72603;SDS011;60645;56.968;24.196;2023-04-24T04:54:17;7.05;;;3.08;;
72603;SDS011;60645;56.968;24.196;2023-04-24T04:56:44;8.10;;;3.17;;
72603;SDS011;60645;56.968;24.196;2023-04-24T04:59:11;7.25;;;3.03;;
72603;SDS011;60645;56.968;24.196;2023-04-24T05:01:38;7.00;;;3.40;;
72603;SDS011;60645;56.968;24.196;2023-04-24T05:04:05;9.35;;;2.75;;
72603;SDS011;60645;56.968;24.196;2023-04-24T05:06:33;8.18;;;3.00;;
72603;SDS011;60645;56.968;24.196;2023-04-24T05:09:00;7.50;;;2.70;;
72603;SDS011;60645;56.968;24.196;2023-04-24T05:11:27;10.25;;;3.05;;
72603;SDS011;60645;56.968;24.196;2023-04-24T05:13:53;8.13;;;3.47;;
72603;SDS011;60645;56.968;24.196;2023-04-24T05:16:21;6.75;;;3.00;;
72603;SDS011;60645;56.968;24.196;2023-04-24T05:18:48;9.40;;;3.20;;
72603;SDS011;60645;56.968;24.196;2023-04-24T05:21:15;9.63;;;2.80;;
72603;SDS011;60645;56.968;24.196;2023-04-24T05:23:41;7.35;;;3.42;;
72603;SDS011;60645;56.968;24.196;2023-04-24T05:26:08;6.15;;;3.47;;
72603;SDS011;60645;56.968;24.196;2023-04-24T05:28:35;7.20;;;3.20;;
72603;SDS011;60645;56.968;24.196;2023-04-24T05:31:03;6.72;;;3.35;;
72603;SDS011;60645;56.968;24.196;2023-04-24T05:33:30;7.18;;;2.75;;
72603;SDS011;60645;56.968;24.196;2023-04-24T05:35:57;7.07;;;3.00;;
72603;SDS011;60645;56.968;24.196;2023-04-24T05:38:24;8.30;;;3.30;;
72603;SDS011;60645;56.968;24.196;2023-04-24T05:40:51;8.10;;;3.10;;
72603;SDS011;60645;56.968;24.196;2023-04-24T05:43:18;7.95;;;3.60;;
72603;SDS011;60645;56.968;24.196;2023-04-24T05:45:46;6.05;;;3.75;;
72603;SDS011;60645;56.968;24.196;2023-04-24T05:48:12;9.63;;;3.33;;
72603;SDS011;60645;56.968;24.196;2023-04-24T05:50:39;8.35;;;3.53;;
72603;SDS011;60645;56.968;24.196;2023-04-24T05:53:06;7.55;;;3.50;;
72603;SDS011;60645;56.968;24.196;2023-04-24T05:55:34;9.55;;;3.60;;
72603;SDS011;60645;56.968;24.196;2023-04-24T05:58:02;7.18;;;4.10;;
72603;SDS011;60645;56.968;24.196;2023-04-24T06:00:29;8.32;;;3.63;;
72603;SDS011;60645;56.968;24.196;2023-04-24T06:02:56;9.77;;;3.60;;
72603;SDS011;60645;56.968;24.196;2023-04-24T06:05:24;9.15;;;3.97;;
72603;SDS011;60645;56.968;24.196;2023-04-24T06:07:51;8.75;;;3.95;;
72603;SDS011;60645;56.968;24.196;2023-04-24T06:10:18;10.97;;;3.60;;
72603;SDS011;60645;56.968;24.196;2023-04-24T06:12:45;7.70;;;4.18;;
72603;SDS011;60645;56.968;24.196;2023-04-24T06:15:12;10.65;;;3.65;;
72603;SDS011;60645;56.968;24.196;2023-04-24T06:17:39;9.25;;;4.55;;
72603;SDS011;60645;56.968;24.196;2023-04-24T06:20:06;10.32;;;4.03;;
72603;SDS011;60645;56.968;24.196;2023-04-24T06:22:34;7.63;;;3.55;;
72603;SDS011;60645;56.968;24.196;2023-04-24T06:25:01;7.82;;;4.22;;
72603;SDS011;60645;56.968;24.196;2023-04-24T06:27:29;13.48;;;4.25;;
72603;SDS011;60645;56.968;24.196;2023-04-24T06:29:56;6.75;;;3.67;;
72603;SDS011;60645;56.968;24.196;2023-04-24T06:32:23;6.95;;;3.60;;
72603;SDS011;60645;56.968;24.196;2023-04-24T06:34:51;6.75;;;3.72;;
72603;SDS011;60645;56.968;24.196;2023-04-24T06:37:19;10.10;;;4.20;;
72603;SDS011;60645;56.968;24.196;2023-04-24T06:39:47;11.00;;;4.18;;
72603;SDS011;60645;56.968;24.196;2023-04-24T06:42:14;7.70;;;3.78;;
72603;SDS011;60645;56.968;24.196;2023-04-24T06:44:41;6.82;;;3.38;;
72603;SDS011;60645;56.968;24.196;2023-04-24T06:47:08;11.35;;;4.32;;
72603;SDS011;60645;56.968;24.196;2023-04-24T06:49:36;8.75;;;4.03;;
72603;SDS011;60645;56.968;24.196;2023-04-24T06:52:04;9.70;;;4.28;;
72603;SDS011;60645;56.968;24.196;2023-04-24T06:54:31;10.07;;;3.83;;
72603;SDS011;60645;56.968;24.196;2023-04-24T06:56:59;9.45;;;3.70;;
72603;SDS011;60645;56.968;24.196;2023-04-24T06:59:29;8.25;;;3.83;;
72603;SDS011;60645;56.968;24.196;2023-04-24T07:01:56;10.85;;;3.88;;
72603;SDS011;60645;56.968;24.196;2023-04-24T07:04:24;10.20;;;3.97;;
72603;SDS011;60645;56.968;24.196;2023-04-24T07:06:52;8.00;;;4.22;;
72603;SDS011;60645;56.968;24.196;2023-04-24T07:09:23;8.95;;;3.83;;
72603;SDS011;60645;56.968;24.196;2023-04-24T07:11:51;7.07;;;4.53;;
72603;SDS011;60645;56.968;24.196;2023-04-24T07:14:19;10.00;;;4.20;;
72603;SDS011;60645;56.968;24.196;2023-04-24T07:16:46;7.10;;;4.20;;
72603;SDS011;60645;56.968;24.196;2023-04-24T07:19:13;10.85;;;4.88;;
72603;SDS011;60645;56.968;24.196;2023-04-24T07:21:41;8.35;;;4.15;;
72603;SDS011;60645;56.968;24.196;2023-04-24T07:24:08;8.13;;;4.50;;
72603;SDS011;60645;56.968;24.196;2023-04-24T07:26:37;7.57;;;3.60;;
72603;SDS011;60645;56.968;24.196;2023-04-24T07:29:05;7.93;;;4.10;;
72603;SDS011;60645;56.968;24.196;2023-04-24T07:31:33;13.10;;;4.40;;
72603;SDS011;60645;56.968;24.196;2023-04-24T07:34:00;7.30;;;4.00;;
72603;SDS011;60645;56.968;24.196;2023-04-24T07:36:27;15.50;;;4.90;;
72603;SDS011;60645;56.968;24.196;2023-04-24T07:38:55;11.48;;;3.92;;
72603;SDS011;60645;56.968;24.196;2023-04-24T07:41:23;8.50;;;4.23;;
72603;SDS011;60645;56.968;24.196;2023-04-24T07:43:50;12.13;;;4.60;;
72603;SDS011;60645;56.968;24.196;2023-04-24T07:46:19;18.87;;;4.87;;
72603;SDS011;60645;56.968;24.196;2023-04-24T07:48:47;28.17;;;4.80;;
72603;SDS011;60645;56.968;24.196;2023-04-24T07:51:27;16.73;;;4.90;;
72603;SDS011;60645;56.968;24.196;2023-04-24T07:53:54;17.00;;;5.13;;
72603;SDS011;60645;56.968;24.196;2023-04-24T07:56:21;14.43;;;4.63;;
72603;SDS011;60645;56.968;24.196;2023-04-24T07:58:48;14.07;;;4.57;;
72603;SDS011;60645;56.968;24.196;2023-04-24T08:01:15;16.77;;;4.63;;
72603;SDS011;60645;56.968;24.196;2023-04-24T08:03:42;18.58;;;4.70;;
72603;SDS011;60645;56.968;24.196;2023-04-24T08:06:09;10.77;;;4.50;;
72603;SDS011;60645;56.968;24.196;2023-04-24T08:08:36;8.77;;;4.57;;
72603;SDS011;60645;56.968;24.196;2023-04-24T08:11:03;9.85;;;4.70;;
72603;SDS011;60645;56.968;24.196;2023-04-24T08:13:30;9.75;;;4.90;;
72603;SDS011;60645;56.968;24.196;2023-04-24T08:15:58;13.20;;;4.88;;
72603;SDS011;60645;56.968;24.196;2023-04-24T08:18:24;16.60;;;4.93;;
72603;SDS011;60645;56.968;24.196;2023-04-24T08:20:52;10.90;;;4.63;;
72603;SDS011;60645;56.968;24.196;2023-04-24T08:23:19;12.17;;;5.07;;
72603;SDS011;60645;56.968;24.196;2023-04-24T08:25:46;12.77;;;4.93;;
72603;SDS011;60645;56.968;24.196;2023-04-24T08:28:13;9.83;;;4.37;;
72603;SDS011;60645;56.968;24.196;2023-04-24T08:30:46;8.38;;;4.70;;
72603;SDS011;60645;56.968;24.196;2023-04-24T08:33:14;8.77;;;4.50;;
72603;SDS011;60645;56.968;24.196;2023-04-24T08:35:41;10.50;;;4.88;;
72603;SDS011;60645;56.968;24.196;2023-04-24T08:38:08;7.25;;;4.80;;
72603;SDS011;60645;56.968;24.196;2023-04-24T08:40:35;15.32;;;4.75;;
72603;SDS011;60645;56.968;24.196;2023-04-24T08:43:03;9.00;;;5.20;;
72603;SDS011;60645;56.968;24.196;2023-04-24T08:45:30;11.13;;;5.20;;
72603;SDS011;60645;56.968;24.196;2023-04-24T08:47:59;10.93;;;5.10;;
72603;SDS011;60645;56.968;24.196;2023-04-24T08:50:26;9.45;;;5.20;;
72603;SDS011;60645;56.968;24.196;2023-04-24T08:52:54;9.50;;;4.60;;
72603;SDS011;60645;56.968;24.196;2023-04-24T08:55:23;11.38;;;5.22;;
72603;SDS011;60645;56.968;24.196;2023-04-24T08:57:51;11.30;;;5.28;;
72603;SDS011;60645;56.968;24.196;2023-04-24T09:00:20;12.20;;;5.60;;
72603;SDS011;60645;56.968;24.196;2023-04-24T09:02:51;12.35;;;5.25;;
72603;SDS011;60645;56.968;24.196;2023-04-24T09:05:22;11.15;;;5.25;;
72603;SDS011;60645;56.968;24.196;2023-04-24T09:07:54;12.27;;;5.63;;
72603;SDS011;60645;56.968;24.196;2023-04-24T09:10:23;10.65;;;5.10;;
72603;SDS011;60645;56.968;24.196;2023-04-24T09:12:51;10.03;;;5.70;;
72603;SDS011;60645;56.968;24.196;2023-04-24T09:15:19;8.95;;;5.45;;
72603;SDS011;60645;56.968;24.196;2023-04-24T09:17:46;10.00;;;5.35;;
72603;SDS011;60645;56.968;24.196;2023-04-24T09:20:14;10.70;;;5.38;;
72603;SDS011;60645;56.968;24.196;2023-04-24T09:22:41;9.10;;;5.60;;
72603;SDS011;60645;56.968;24.196;2023-04-24T09:25:09;11.05;;;5.30;;
72603;SDS011;60645;56.968;24.196;2023-04-24T09:27:42;9.20;;;4.78;;
72603;SDS011;60645;56.968;24.196;2023-04-24T09:30:13;17.65;;;5.72;;
72603;SDS011;60645;56.968;24.196;2023-04-24T09:32:47;16.25;;;5.60;;
72603;SDS011;60645;56.968;24.196;2023-04-24T09:35:14;15.00;;;5.60;;
72603;SDS011;60645;56.968;24.196;2023-04-24T09:37:45;11.75;;;5.72;;
72603;SDS011;60645;56.968;24.196;2023-04-24T09:40:16;12.20;;;5.10;;
72603;SDS011;60645;56.968;24.196;2023-04-24T09:42:52;11.77;;;5.53;;
72603;SDS011;60645;56.968;24.196;2023-04-24T09:45:20;11.13;;;5.95;;
72603;SDS011;60645;56.968;24.196;2023-04-24T09:47:51;10.35;;;5.50;;
72603;SDS011;60645;56.968;24.196;2023-04-24T09:50:20;14.38;;;5.70;;
72603;SDS011;60645;56.968;24.196;2023-04-24T09:55:49;12.38;;;5.43;;
72603;SDS011;60645;56.968;24.196;2023-04-24T09:58:17;10.97;;;5.93;;
72603;SDS011;60645;56.968;24.196;2023-04-24T10:00:43;10.93;;;6.22;;
72603;SDS011;60645;56.968;24.196;2023-04-24T10:03:12;9.98;;;5.85;;
72603;SDS011;60645;56.968;24.196;2023-04-24T10:05:39;14.50;;;5.97;;
72603;SDS011;60645;56.968;24.196;2023-04-24T10:08:08;20.58;;;6.20;;
72603;SDS011;60645;56.968;24.196;2023-04-24T10:10:43;14.55;;;5.63;;
72603;SDS011;60645;56.968;24.196;2023-04-24T10:13:11;10.10;;;5.93;;
72603;SDS011;60645;56.968;24.196;2023-04-24T10:15:41;12.75;;;6.18;;
72603;SDS011;60645;56.968;24.196;2023-04-24T10:18:09;15.35;;;6.13;;
72603;SDS011;60645;56.968;24.196;2023-04-24T10:20:37;9.03;;;5.43;;
72603;SDS011;60645;56.968;24.196;2023-04-24T10:23:06;13.07;;;5.75;;
72603;SDS011;60645;56.968;24.196;2023-04-24T10:25:34;14.20;;;6.00;;
72603;SDS011;60645;56.968;24.196;2023-04-24T10:28:03;14.07;;;6.05;;
72603;SDS011;60645;56.968;24.196;2023-04-24T10:35:30;7.78;;;4.80;;
72603;SDS011;60645;56.968;24.196;2023-04-24T10:38:06;7.28;;;4.80;;
72603;SDS011;60645;56.968;24.196;2023-04-24T10:40:36;9.88;;;4.88;;
72603;SDS011;60645;56.968;24.196;2023-04-24T10:43:04;8.70;;;4.63;;
72603;SDS011;60645;56.968;24.196;2023-04-24T10:45:34;8.13;;;4.80;;
72603;SDS011;60645;56.968;24.196;2023-04-24T10:48:02;6.77;;;4.87;;
72603;SDS011;60645;56.968;24.196;2023-04-24T10:50:47;6.80;;;4.53;;
72603;SDS011;60645;56.968;24.196;2023-04-24T10:53:19;7.53;;;4.70;;
72603;SDS011;60645;56.968;24.196;2023-04-24T10:55:50;9.43;;;4.43;;
72603;SDS011;60645;56.968;24.196;2023-04-24T10:58:21;8.73;;;4.20;;
72603;SDS011;60645;56.968;24.196;2023-04-24T11:00:58;8.13;;;4.63;;
72603;SDS011;60645;56.968;24.196;2023-04-24T11:03:30;8.77;;;4.07;;
72603;SDS011;60645;56.968;24.196;2023-04-24T11:08:41;10.27;;;5.00;;
72603;SDS011;60645;56.968;24.196;2023-04-24T11:16:20;10.25;;;5.00;;
72603;SDS011;60645;56.968;24.196;2023-04-24T11:26:59;11.23;;;5.00;;
72603;SDS011;60645;56.968;24.196;2023-04-24T11:29:40;9.32;;;4.75;;
72603;SDS011;60645;56.968;24.196;2023-04-24T11:32:14;11.20;;;5.30;;
72603;SDS011;60645;56.968;24.196;2023-04-24T11:35:03;16.95;;;7.28;;
72603;SDS011;60645;56.968;24.196;2023-04-24T11:37:34;12.13;;;5.10;;
72603;SDS011;60645;56.968;24.196;2023-04-24T11:40:02;12.48;;;5.35;;
72603;SDS011;60645;56.968;24.196;2023-04-24T11:42:37;10.60;;;5.97;;
72603;SDS011;60645;56.968;24.196;2023-04-24T11:45:10;9.93;;;4.72;;
72603;SDS011;60645;56.968;24.196;2023-04-24T11:47:38;14.35;;;5.82;;
72603;SDS011;60645;56.968;24.196;2023-04-24T11:50:07;18.42;;;6.55;;
72603;SDS011;60645;56.968;24.196;2023-04-24T11:52:39;18.60;;;6.95;;
72603;SDS011;60645;56.968;24.196;2023-04-24T11:55:22;17.85;;;7.97;;
72603;SDS011;60645;56.968;24.196;2023-04-24T11:57:53;17.95;;;6.57;;
72603;SDS011;60645;56.968;24.196;2023-04-24T12:00:29;16.48;;;6.90;;
72603;SDS011;60645;56.968;24.196;2023-04-24T12:03:04;24.42;;;6.82;;
72603;SDS011;60645;56.968;24.196;2023-04-24T12:05:36;20.40;;;6.83;;
72603;SDS011;60645;56.968;24.196;2023-04-24T12:08:04;15.40;;;6.85;;
72603;SDS011;60645;56.968;24.196;2023-04-24T12:10:32;14.98;;;5.50;;
72603;SDS011;60645;56.968;24.196;2023-04-24T12:13:00;14.32;;;6.18;;
72603;SDS011;60645;56.968;24.196;2023-04-24T12:15:27;18.48;;;6.32;;
72603;SDS011;60645;56.968;24.196;2023-04-24T12:17:55;21.92;;;6.28;;
72603;SDS011;60645;56.968;24.196;2023-04-24T12:20:31;16.25;;;5.95;;
72603;SDS011;60645;56.968;24.196;2023-04-24T12:22:59;22.20;;;5.88;;
72603;SDS011;60645;56.968;24.196;2023-04-24T12:25:33;16.50;;;5.88;;
72603;SDS011;60645;56.968;24.196;2023-04-24T12:30:31;18.15;;;6.07;;
72603;SDS011;60645;56.968;24.196;2023-04-24T12:33:17;13.77;;;6.10;;
72603;SDS011;60645;56.968;24.196;2023-04-24T12:35:46;18.90;;;5.40;;
72603;SDS011;60645;56.968;24.196;2023-04-24T12:38:16;16.08;;;5.50;;
72603;SDS011;60645;56.968;24.196;2023-04-24T12:40:47;13.38;;;6.07;;
72603;SDS011;60645;56.968;24.196;2023-04-24T12:45:41;13.10;;;5.97;;
72603;SDS011;60645;56.968;24.196;2023-04-24T12:48:08;11.35;;;5.03;;
72603;SDS011;60645;56.968;24.196;2023-04-24T12:50:35;12.05;;;5.55;;
72603;SDS011;60645;56.968;24.196;2023-04-24T12:53:02;14.50;;;6.28;;
72603;SDS011;60645;56.968;24.196;2023-04-24T12:55:29;12.82;;;5.78;;
72603;SDS011;60645;56.968;24.196;2023-04-24T12:57:56;20.05;;;6.50;;
72603;SDS011;60645;56.968;24.196;2023-04-24T13:00:24;18.42;;;5.53;;
72603;SDS011;60645;56.968;24.196;2023-04-24T13:02:51;31.27;;;7.70;;
72603;SDS011;60645;56.968;24.196;2023-04-24T13:05:18;23.65;;;7.85;;
72603;SDS011;60645;56.968;24.196;2023-04-24T13:07:45;27.85;;;8.02;;
72603;SDS011;60645;56.968;24.196;2023-04-24T13:10:12;26.38;;;8.70;;
72603;SDS011;60645;56.968;24.196;2023-04-24T13:12:39;31.08;;;7.90;;
72603;SDS011;60645;56.968;24.196;2023-04-24T13:15:07;26.70;;;8.23;;
72603;SDS011;60645;56.968;24.196;2023-04-24T13:17:34;20.48;;;6.88;;
72603;SDS011;60645;56.968;24.196;2023-04-24T13:20:01;20.63;;;7.13;;
72603;SDS011;60645;56.968;24.196;2023-04-24T13:22:28;20.08;;;7.22;;
72603;SDS011;60645;56.968;24.196;2023-04-24T13:24:55;31.63;;;7.72;;
72603;SDS011;60645;56.968;24.196;2023-04-24T13:27:23;22.52;;;7.93;;
72603;SDS011;60645;56.968;24.196;2023-04-24T13:29:50;21.02;;;7.22;;
72603;SDS011;60645;56.968;24.196;2023-04-24T13:32:17;28.50;;;9.90;;
72603;SDS011;60645;56.968;24.196;2023-04-24T13:34:45;33.70;;;10.40;;
72603;SDS011;60645;56.968;24.196;2023-04-24T13:37:12;41.97;;;12.55;;
72603;SDS011;60645;56.968;24.196;2023-04-24T13:39:39;35.73;;;12.63;;
72603;SDS011;60645;56.968;24.196;2023-04-24T13:42:07;35.37;;;13.30;;
72603;SDS011;60645;56.968;24.196;2023-04-24T13:44:35;36.42;;;13.63;;
72603;SDS011;60645;56.968;24.196;2023-04-24T13:47:02;29.95;;;12.50;;
72603;SDS011;60645;56.968;24.196;2023-04-24T13:49:28;27.47;;;12.07;;
72603;SDS011;60645;56.968;24.196;2023-04-24T13:51:55;28.17;;;12.63;;
72603;SDS011;60645;56.968;24.196;2023-04-24T13:54:22;26.02;;;12.75;;
72603;SDS011;60645;56.968;24.196;2023-04-24T13:56:52;17.30;;;9.38;;
72603;SDS011;60645;56.968;24.196;2023-04-24T13:59:19;18.73;;;9.55;;
72603;SDS011;60645;56.968;24.196;2023-04-24T14:01:47;24.40;;;9.27;;
72603;SDS011;60645;56.968;24.196;2023-04-24T14:04:14;25.73;;;9.65;;
72603;SDS011;60645;56.968;24.196;2023-04-24T14:06:42;21.92;;;8.75;;
72603;SDS011;60645;56.968;24.196;2023-04-24T14:09:09;21.38;;;8.55;;
72603;SDS011;60645;56.968;24.196;2023-04-24T14:11:36;25.13;;;8.88;;
72603;SDS011;60645;56.968;24.196;2023-04-24T14:14:04;26.20;;;9.60;;
72603;SDS011;60645;56.968;24.196;2023-04-24T14:16:31;25.48;;;10.65;;
72603;SDS011;60645;56.968;24.196;2023-04-24T14:18:59;24.20;;;9.30;;
72603;SDS011;60645;56.968;24.196;2023-04-24T14:21:26;17.58;;;8.57;;
72603;SDS011;60645;56.968;24.196;2023-04-24T14:23:53;23.45;;;7.63;;
72603;SDS011;60645;56.968;24.196;2023-04-24T14:26:20;17.27;;;8.03;;
72603;SDS011;60645;56.968;24.196;2023-04-24T14:28:47;20.15;;;7.75;;
72603;SDS011;60645;56.968;24.196;2023-04-24T14:31:13;18.30;;;7.27;;
72603;SDS011;60645;56.968;24.196;2023-04-24T14:33:40;21.38;;;7.60;;
72603;SDS011;60645;56.968;24.196;2023-04-24T14:36:08;25.17;;;8.10;;
72603;SDS011;60645;56.968;24.196;2023-04-24T14:38:35;34.40;;;9.02;;
72603;SDS011;60645;56.968;24.196;2023-04-24T14:41:02;19.05;;;7.43;;
72603;SDS011;60645;56.968;24.196;2023-04-24T14:43:36;15.82;;;7.35;;
72603;SDS011;60645;56.968;24.196;2023-04-24T14:46:03;15.60;;;7.47;;
72603;SDS011;60645;56.968;24.196;2023-04-24T14:48:30;13.90;;;7.00;;
72603;SDS011;60645;56.968;24.196;2023-04-24T14:50:58;19.42;;;8.15;;
72603;SDS011;60645;56.968;24.196;2023-04-24T14:53:24;19.42;;;8.00;;
72603;SDS011;60645;56.968;24.196;2023-04-24T14:55:51;18.92;;;10.55;;
72603;SDS011;60645;56.968;24.196;2023-04-24T14:58:18;13.18;;;8.82;;
72603;SDS011;60645;56.968;24.196;2023-04-24T15:00:45;15.67;;;8.67;;
72603;SDS011;60645;56.968;24.196;2023-04-24T15:03:12;13.60;;;8.73;;